sensor_id;sensor_type;location;lat;lon;timestamp;pressure;altitude;pressure_sealevel;temperature
27826;BMP280;15077;49.704;9.908;2022-10-23T00:01:27;98273.38;;;17.34
27826;BMP280;15077;49.704;9.908;2022-10-23T00:04:02;98274.69;;;17.27
27826;BMP280;15077;49.704;9.908;2022-10-23T00:06:31;98266.63;;;17.19
27826;BMP280;15077;49.704;9.908;2022-10-23T00:08:56;98272.06;;;17.14
27826;BMP280;15077;49.704;9.908;2022-10-23T00:11:24;98270.59;;;17.10
27826;BMP280;15077;49.704;9.908;2022-10-23T00:13:53;98271.69;;;17.06
27826;BMP280;15077;49.704;9.908;2022-10-23T00:16:19;98269.44;;;17.02
27826;BMP280;15077;49.704;9.908;2022-10-23T00:18:45;98263.69;;;16.99
27826;BMP280;15077;49.704;9.908;2022-10-23T00:21:12;98263.97;;;16.94
27826;BMP280;15077;49.704;9.908;2022-10-23T00:23:38;98259.06;;;16.91
27826;BMP280;15077;49.704;9.908;2022-10-23T00:26:05;98253.28;;;16.88
27826;BMP280;15077;49.704;9.908;2022-10-23T00:28:33;98248.38;;;16.85
27826;BMP280;15077;49.704;9.908;2022-10-23T00:31:03;98255.34;;;16.83
27826;BMP280;15077;49.704;9.908;2022-10-23T00:33:30;98257.16;;;16.81
27826;BMP280;15077;49.704;9.908;2022-10-23T00:35:56;98251.41;;;16.77
27826;BMP280;15077;49.704;9.908;2022-10-23T00:38:22;98258.38;;;16.75
27826;BMP280;15077;49.704;9.908;2022-10-23T00:40:48;98262.78;;;16.73
27826;BMP280;15077;49.704;9.908;2022-10-23T00:43:23;98261.22;;;16.71
27826;BMP280;15077;49.704;9.908;2022-10-23T00:45:49;98265.72;;;16.67
27826;BMP280;15077;49.704;9.908;2022-10-23T00:48:16;98267.53;;;16.65
27826;BMP280;15077;49.704;9.908;2022-10-23T00:50:42;98260.97;;;16.61
27826;BMP280;15077;49.704;9.908;2022-10-23T00:53:10;98256.00;;;16.58
27826;BMP280;15077;49.704;9.908;2022-10-23T00:55:37;98251.09;;;16.55
27826;BMP280;15077;49.704;9.908;2022-10-23T00:58:04;98243.50;;;16.54
27826;BMP280;15077;49.704;9.908;2022-10-23T01:00:49;98244.63;;;16.50
27826;BMP280;15077;49.704;9.908;2022-10-23T01:03:17;98242.16;;;16.49
27826;BMP280;15077;49.704;9.908;2022-10-23T01:05:53;98229.56;;;16.46
27826;BMP280;15077;49.704;9.908;2022-10-23T01:08:28;98236.50;;;16.44
27826;BMP280;15077;49.704;9.908;2022-10-23T01:11:30;98236.69;;;16.41
27826;BMP280;15077;49.704;9.908;2022-10-23T01:14:04;98235.16;;;16.38
27826;BMP280;15077;49.704;9.908;2022-10-23T01:16:47;98233.59;;;16.36
27826;BMP280;15077;49.704;9.908;2022-10-23T01:19:32;98229.47;;;16.33
27826;BMP280;15077;49.704;9.908;2022-10-23T01:27:47;98235.81;;;16.28
27826;BMP280;15077;49.704;9.908;2022-10-23T01:30:16;98223.31;;;16.23
27826;BMP280;15077;49.704;9.908;2022-10-23T01:32:53;98224.19;;;16.22
27826;BMP280;15077;49.704;9.908;2022-10-23T01:35:34;98228.56;;;16.20
27826;BMP280;15077;49.704;9.908;2022-10-23T01:38:11;98225.25;;;16.18
27826;BMP280;15077;49.704;9.908;2022-10-23T01:40:48;98221.19;;;16.16
27826;BMP280;15077;49.704;9.908;2022-10-23T01:43:23;98222.97;;;16.14
27826;BMP280;15077;49.704;9.908;2022-10-23T01:45:53;98215.50;;;16.11
27826;BMP280;15077;49.704;9.908;2022-10-23T01:48:23;98219.91;;;16.09
27826;BMP280;15077;49.704;9.908;2022-10-23T01:50:50;98209.66;;;16.09
27826;BMP280;15077;49.704;9.908;2022-10-23T01:53:18;98223.44;;;16.06
27826;BMP280;15077;49.704;9.908;2022-10-23T01:55:46;98216.78;;;16.04
27826;BMP280;15077;49.704;9.908;2022-10-23T01:58:14;98213.50;;;16.02
27826;BMP280;15077;49.704;9.908;2022-10-23T02:00:41;98208.47;;;16.01
27826;BMP280;15077;49.704;9.908;2022-10-23T02:03:09;98213.69;;;15.99
27826;BMP280;15077;49.704;9.908;2022-10-23T02:05:35;98207.84;;;15.97
27826;BMP280;15077;49.704;9.908;2022-10-23T02:08:04;98213.06;;;15.96
27826;BMP280;15077;49.704;9.908;2022-10-23T02:10:44;98207.19;;;15.94
27826;BMP280;15077;49.704;9.908;2022-10-23T02:15:47;98208.31;;;15.90
27826;BMP280;15077;49.704;9.908;2022-10-23T02:20:59;98212.75;;;15.86
27826;BMP280;15077;49.704;9.908;2022-10-23T02:23:29;98211.13;;;15.85
27826;BMP280;15077;49.704;9.908;2022-10-23T02:28:33;98211.41;;;15.81
27826;BMP280;15077;49.704;9.908;2022-10-23T02:31:04;98211.50;;;15.79
27826;BMP280;15077;49.704;9.908;2022-10-23T02:33:33;98209.03;;;15.78
27826;BMP280;15077;49.704;9.908;2022-10-23T02:36:00;98201.47;;;15.76
27826;BMP280;15077;49.704;9.908;2022-10-23T02:40:57;98196.53;;;15.73
27826;BMP280;15077;49.704;9.908;2022-10-23T02:43:27;98180.44;;;15.71
27826;BMP280;15077;49.704;9.908;2022-10-23T02:46:11;98173.81;;;15.69
27826;BMP280;15077;49.704;9.908;2022-10-23T02:48:44;98183.38;;;15.65
27826;BMP280;15077;49.704;9.908;2022-10-23T02:51:34;98180.91;;;15.64
27826;BMP280;15077;49.704;9.908;2022-10-23T02:54:12;98168.41;;;15.59
27826;BMP280;15077;49.704;9.908;2022-10-23T02:56:51;98170.22;;;15.57
27826;BMP280;15077;49.704;9.908;2022-10-23T02:59:36;98165.31;;;15.54
27826;BMP280;15077;49.704;9.908;2022-10-23T03:02:27;98163.66;;;15.53
27826;BMP280;15077;49.704;9.908;2022-10-23T03:04:55;98161.19;;;15.52
27826;BMP280;15077;49.704;9.908;2022-10-23T03:07:21;98151.97;;;15.50
27826;BMP280;15077;49.704;9.908;2022-10-23T03:09:46;98163.13;;;15.49
27826;BMP280;15077;49.704;9.908;2022-10-23T03:12:12;98163.28;;;15.46
27826;BMP280;15077;49.704;9.908;2022-10-23T03:14:38;98169.31;;;15.45
27826;BMP280;15077;49.704;9.908;2022-10-23T03:17:04;98173.69;;;15.43
27826;BMP280;15077;49.704;9.908;2022-10-23T03:19:30;98160.25;;;15.39
27826;BMP280;15077;49.704;9.908;2022-10-23T03:21:55;98166.31;;;15.38
27826;BMP280;15077;49.704;9.908;2022-10-23T03:24:21;98168.19;;;15.35
27826;BMP280;15077;49.704;9.908;2022-10-23T03:26:46;98164.00;;;15.34
27826;BMP280;15077;49.704;9.908;2022-10-23T03:29:12;98151.34;;;15.32
27826;BMP280;15077;49.704;9.908;2022-10-23T03:31:38;98163.25;;;15.32
27826;BMP280;15077;49.704;9.908;2022-10-23T03:34:03;98170.19;;;15.30
27826;BMP280;15077;49.704;9.908;2022-10-23T03:36:34;98174.59;;;15.28
27826;BMP280;15077;49.704;9.908;2022-10-23T03:39:00;98173.81;;;15.26
27826;BMP280;15077;49.704;9.908;2022-10-23T03:41:25;98182.41;;;15.25
27826;BMP280;15077;49.704;9.908;2022-10-23T03:43:51;98170.56;;;15.24
27826;BMP280;15077;49.704;9.908;2022-10-23T03:46:17;98163.06;;;15.21
27826;BMP280;15077;49.704;9.908;2022-10-23T03:48:42;98158.88;;;15.20
27826;BMP280;15077;49.704;9.908;2022-10-23T03:51:08;98157.22;;;15.19
27826;BMP280;15077;49.704;9.908;2022-10-23T03:53:34;98150.47;;;15.18
27826;BMP280;15077;49.704;9.908;2022-10-23T03:56:00;98141.22;;;15.15
27826;BMP280;15077;49.704;9.908;2022-10-23T03:58:25;98143.88;;;15.14
27826;BMP280;15077;49.704;9.908;2022-10-23T04:00:51;98142.22;;;15.13
27826;BMP280;15077;49.704;9.908;2022-10-23T04:03:17;98142.22;;;15.13
27826;BMP280;15077;49.704;9.908;2022-10-23T04:05:42;98136.38;;;15.11
27826;BMP280;15077;49.704;9.908;2022-10-23T04:08:08;98144.94;;;15.10
27826;BMP280;15077;49.704;9.908;2022-10-23T04:10:34;98140.78;;;15.09
27826;BMP280;15077;49.704;9.908;2022-10-23T04:13:00;98139.13;;;15.08
27826;BMP280;15077;49.704;9.908;2022-10-23T04:15:25;98141.75;;;15.06
27826;BMP280;15077;49.704;9.908;2022-10-23T04:17:51;98156.25;;;15.06
27826;BMP280;15077;49.704;9.908;2022-10-23T04:20:17;98149.50;;;15.05
27826;BMP280;15077;49.704;9.908;2022-10-23T04:22:42;98152.94;;;15.04
27826;BMP280;15077;49.704;9.908;2022-10-23T04:25:08;98158.22;;;15.01
27826;BMP280;15077;49.704;9.908;2022-10-23T04:27:34;98157.41;;;15.01
27826;BMP280;15077;49.704;9.908;2022-10-23T04:30:00;98160.06;;;14.99
27826;BMP280;15077;49.704;9.908;2022-10-23T04:32:25;98160.25;;;14.96
27826;BMP280;15077;49.704;9.908;2022-10-23T04:34:51;98158.41;;;14.98
27826;BMP280;15077;49.704;9.908;2022-10-23T04:37:17;98161.13;;;14.95
27826;BMP280;15077;49.704;9.908;2022-10-23T04:39:42;98162.88;;;14.95
27826;BMP280;15077;49.704;9.908;2022-10-23T04:42:08;98150.19;;;14.93
27826;BMP280;15077;49.704;9.908;2022-10-23T04:44:33;98166.41;;;14.92
27826;BMP280;15077;49.704;9.908;2022-10-23T04:46:59;98160.59;;;14.90
27826;BMP280;15077;49.704;9.908;2022-10-23T04:49:25;98155.56;;;14.89
27826;BMP280;15077;49.704;9.908;2022-10-23T04:51:50;98159.84;;;14.88
27826;BMP280;15077;49.704;9.908;2022-10-23T04:54:16;98152.28;;;14.87
27826;BMP280;15077;49.704;9.908;2022-10-23T04:56:42;98152.38;;;14.85
27826;BMP280;15077;49.704;9.908;2022-10-23T04:59:07;98148.97;;;14.85
27826;BMP280;15077;49.704;9.908;2022-10-23T05:01:33;98157.66;;;14.82
27826;BMP280;15077;49.704;9.908;2022-10-23T05:03:59;98147.44;;;14.82
27826;BMP280;15077;49.704;9.908;2022-10-23T05:06:24;98144.13;;;14.80
27826;BMP280;15077;49.704;9.908;2022-10-23T05:08:50;98145.16;;;14.78
27826;BMP280;15077;49.704;9.908;2022-10-23T05:11:16;98135.94;;;14.75
27826;BMP280;15077;49.704;9.908;2022-10-23T05:13:41;98127.53;;;14.73
27826;BMP280;15077;49.704;9.908;2022-10-23T05:16:07;98125.91;;;14.72
27826;BMP280;15077;49.704;9.908;2022-10-23T05:18:41;98127.69;;;14.70
27826;BMP280;15077;49.704;9.908;2022-10-23T05:21:12;98126.88;;;14.70
27826;BMP280;15077;49.704;9.908;2022-10-23T05:23:40;98125.31;;;14.67
27826;BMP280;15077;49.704;9.908;2022-10-23T05:26:07;98137.25;;;14.67
27826;BMP280;15077;49.704;9.908;2022-10-23T05:28:33;98130.59;;;14.64
27826;BMP280;15077;49.704;9.908;2022-10-23T05:30:59;98133.13;;;14.64
27826;BMP280;15077;49.704;9.908;2022-10-23T05:33:27;98140.06;;;14.62
27826;BMP280;15077;49.704;9.908;2022-10-23T05:35:53;98142.69;;;14.61
27826;BMP280;15077;49.704;9.908;2022-10-23T05:38:19;98148.63;;;14.61
27826;BMP280;15077;49.704;9.908;2022-10-23T05:40:45;98142.78;;;14.59
27826;BMP280;15077;49.704;9.908;2022-10-23T05:43:11;98140.31;;;14.58
27826;BMP280;15077;49.704;9.908;2022-10-23T05:45:37;98138.59;;;14.58
27826;BMP280;15077;49.704;9.908;2022-10-23T05:48:02;98130.22;;;14.56
27826;BMP280;15077;49.704;9.908;2022-10-23T05:50:28;98144.69;;;14.56
27826;BMP280;15077;49.704;9.908;2022-10-23T05:52:54;98137.13;;;14.55
27826;BMP280;15077;49.704;9.908;2022-10-23T05:55:19;98137.13;;;14.55
27826;BMP280;15077;49.704;9.908;2022-10-23T05:57:45;98132.94;;;14.54
27826;BMP280;15077;49.704;9.908;2022-10-23T06:00:11;98138.03;;;14.54
27826;BMP280;15077;49.704;9.908;2022-10-23T06:02:37;98137.31;;;14.52
27826;BMP280;15077;49.704;9.908;2022-10-23T06:05:02;98142.41;;;14.52
27826;BMP280;15077;49.704;9.908;2022-10-23T06:07:29;98147.50;;;14.52
27826;BMP280;15077;49.704;9.908;2022-10-23T06:09:55;98135.66;;;14.51
27826;BMP280;15077;49.704;9.908;2022-10-23T06:12:21;98140.75;;;14.51
27826;BMP280;15077;49.704;9.908;2022-10-23T06:14:47;98136.38;;;14.53
27826;BMP280;15077;49.704;9.908;2022-10-23T06:17:14;98147.00;;;14.60
27826;BMP280;15077;49.704;9.908;2022-10-23T06:19:39;98144.09;;;14.66
27826;BMP280;15077;49.704;9.908;2022-10-23T06:22:05;98135.25;;;14.72
27826;BMP280;15077;49.704;9.908;2022-10-23T06:24:31;98144.41;;;14.76
27826;BMP280;15077;49.704;9.908;2022-10-23T06:26:56;98135.75;;;14.78
27826;BMP280;15077;49.704;9.908;2022-10-23T06:29:22;98140.69;;;14.81
27826;BMP280;15077;49.704;9.908;2022-10-23T06:31:48;98139.72;;;14.84
27826;BMP280;15077;49.704;9.908;2022-10-23T06:34:14;98126.84;;;14.85
27826;BMP280;15077;49.704;9.908;2022-10-23T06:36:39;98130.03;;;14.89
27826;BMP280;15077;49.704;9.908;2022-10-23T06:39:05;98129.97;;;14.90
27826;BMP280;15077;49.704;9.908;2022-10-23T06:41:31;98119.66;;;14.92
27826;BMP280;15077;49.704;9.908;2022-10-23T06:43:57;98107.72;;;14.92
27826;BMP280;15077;49.704;9.908;2022-10-23T06:46:23;98112.72;;;14.94
27826;BMP280;15077;49.704;9.908;2022-10-23T06:48:48;98117.75;;;14.95
27826;BMP280;15077;49.704;9.908;2022-10-23T06:51:15;98114.28;;;14.96
27826;BMP280;15077;49.704;9.908;2022-10-23T06:53:42;98112.56;;;14.97
27826;BMP280;15077;49.704;9.908;2022-10-23T06:56:09;98115.94;;;14.97
27826;BMP280;15077;49.704;9.908;2022-10-23T06:58:37;98123.53;;;14.99
27826;BMP280;15077;49.704;9.908;2022-10-23T07:01:05;98128.53;;;15.00
27826;BMP280;15077;49.704;9.908;2022-10-23T07:03:32;98122.50;;;15.01
27826;BMP280;15077;49.704;9.908;2022-10-23T07:06:04;98125.06;;;15.01
27826;BMP280;15077;49.704;9.908;2022-10-23T07:08:30;98116.50;;;15.02
27826;BMP280;15077;49.704;9.908;2022-10-23T07:10:56;98117.22;;;15.04
27826;BMP280;15077;49.704;9.908;2022-10-23T07:13:22;98113.75;;;15.05
27826;BMP280;15077;49.704;9.908;2022-10-23T07:15:49;98112.88;;;15.06
27826;BMP280;15077;49.704;9.908;2022-10-23T07:18:15;98110.31;;;15.06
27826;BMP280;15077;49.704;9.908;2022-10-23T07:20:42;98105.03;;;15.09
27826;BMP280;15077;49.704;9.908;2022-10-23T07:23:10;98098.09;;;15.11
27826;BMP280;15077;49.704;9.908;2022-10-23T07:25:36;98094.63;;;15.12
27826;BMP280;15077;49.704;9.908;2022-10-23T07:28:05;98099.56;;;15.15
27826;BMP280;15077;49.704;9.908;2022-10-23T07:30:32;98097.72;;;15.17
27826;BMP280;15077;49.704;9.908;2022-10-23T07:32:57;98104.34;;;15.21
27826;BMP280;15077;49.704;9.908;2022-10-23T07:35:23;98101.63;;;15.24
27826;BMP280;15077;49.704;9.908;2022-10-23T07:37:49;98104.78;;;15.27
27826;BMP280;15077;49.704;9.908;2022-10-23T07:40:14;98104.53;;;15.32
27826;BMP280;15077;49.704;9.908;2022-10-23T07:42:41;98090.69;;;15.36
27826;BMP280;15077;49.704;9.908;2022-10-23T07:45:07;98086.38;;;15.36
27826;BMP280;15077;49.704;9.908;2022-10-23T07:47:33;98093.03;;;15.39
27826;BMP280;15077;49.704;9.908;2022-10-23T07:49:59;98093.69;;;15.42
27826;BMP280;15077;49.704;9.908;2022-10-23T07:52:25;98098.59;;;15.45
27826;BMP280;15077;49.704;9.908;2022-10-23T07:54:53;98106.91;;;15.49
27826;BMP280;15077;49.704;9.908;2022-10-23T07:57:22;98105.00;;;15.52
27826;BMP280;15077;49.704;9.908;2022-10-23T07:59:48;98099.59;;;15.56
27826;BMP280;15077;49.704;9.908;2022-10-23T08:02:14;98095.97;;;15.60
27826;BMP280;15077;49.704;9.908;2022-10-23T08:04:40;98091.38;;;15.65
27826;BMP280;15077;49.704;9.908;2022-10-23T08:07:06;98085.19;;;15.69
27826;BMP280;15077;49.704;9.908;2022-10-23T08:09:31;98087.56;;;15.72
27826;BMP280;15077;49.704;9.908;2022-10-23T08:11:59;98094.13;;;15.76
27826;BMP280;15077;49.704;9.908;2022-10-23T08:14:25;98091.28;;;15.81
27826;BMP280;15077;49.704;9.908;2022-10-23T08:16:51;98090.06;;;15.86
27826;BMP280;15077;49.704;9.908;2022-10-23T08:19:17;98092.34;;;15.91
27826;BMP280;15077;49.704;9.908;2022-10-23T08:21:42;98090.34;;;15.96
27826;BMP280;15077;49.704;9.908;2022-10-23T08:24:09;98093.44;;;16.01
27826;BMP280;15077;49.704;9.908;2022-10-23T08:26:38;98093.16;;;16.05
27826;BMP280;15077;49.704;9.908;2022-10-23T08:29:03;98100.53;;;16.09
27826;BMP280;15077;49.704;9.908;2022-10-23T08:31:29;98095.13;;;16.14
27826;BMP280;15077;49.704;9.908;2022-10-23T08:33:55;98091.47;;;16.18
27826;BMP280;15077;49.704;9.908;2022-10-23T08:36:26;98098.06;;;16.22
27826;BMP280;15077;49.704;9.908;2022-10-23T08:38:55;98103.72;;;16.27
27826;BMP280;15077;49.704;9.908;2022-10-23T08:41:42;98100.78;;;16.33
27826;BMP280;15077;49.704;9.908;2022-10-23T08:47:16;98092.41;;;16.43
27826;BMP280;15077;49.704;9.908;2022-10-23T08:54:59;98096.56;;;16.58
27826;BMP280;15077;49.704;9.908;2022-10-23T08:57:31;98099.56;;;16.64
27826;BMP280;15077;49.704;9.908;2022-10-23T09:00:07;98096.59;;;16.70
27826;BMP280;15077;49.704;9.908;2022-10-23T09:02:38;98089.34;;;16.77
27826;BMP280;15077;49.704;9.908;2022-10-23T09:05:34;98088.13;;;16.82
27826;BMP280;15077;49.704;9.908;2022-10-23T09:08:10;98088.44;;;16.90
27826;BMP280;15077;49.704;9.908;2022-10-23T09:18:40;98067.59;;;17.21
27826;BMP280;15077;49.704;9.908;2022-10-23T09:21:10;98065.31;;;17.29
27826;BMP280;15077;49.704;9.908;2022-10-23T09:23:36;98064.69;;;17.38
27826;BMP280;15077;49.704;9.908;2022-10-23T09:26:09;98069.19;;;17.47
27826;BMP280;15077;49.704;9.908;2022-10-23T09:28:49;98065.00;;;17.58
27826;BMP280;15077;49.704;9.908;2022-10-23T09:31:16;98059.13;;;17.68
27826;BMP280;15077;49.704;9.908;2022-10-23T09:33:53;98056.66;;;17.79
27826;BMP280;15077;49.704;9.908;2022-10-23T09:36:20;98066.75;;;17.93
27826;BMP280;15077;49.704;9.908;2022-10-23T09:38:51;98057.97;;;18.08
27826;BMP280;15077;49.704;9.908;2022-10-23T09:41:18;98049.13;;;18.24
27826;BMP280;15077;49.704;9.908;2022-10-23T09:43:44;98036.63;;;18.43
27826;BMP280;15077;49.704;9.908;2022-10-23T09:46:10;98043.81;;;18.61
27826;BMP280;15077;49.704;9.908;2022-10-23T09:48:38;98027.75;;;18.81
27826;BMP280;15077;49.704;9.908;2022-10-23T09:51:18;98028.94;;;18.99
27826;BMP280;15077;49.704;9.908;2022-10-23T09:53:52;98027.59;;;19.17
27826;BMP280;15077;49.704;9.908;2022-10-23T09:56:33;98017.69;;;19.34
27826;BMP280;15077;49.704;9.908;2022-10-23T09:59:20;98023.63;;;19.56
27826;BMP280;15077;49.704;9.908;2022-10-23T10:04:13;98022.53;;;19.92
27826;BMP280;15077;49.704;9.908;2022-10-23T10:06:38;98017.59;;;20.10
27826;BMP280;15077;49.704;9.908;2022-10-23T10:09:11;98010.84;;;20.30
27826;BMP280;15077;49.704;9.908;2022-10-23T10:22:38;98005.81;;;21.30
27826;BMP280;15077;49.704;9.908;2022-10-23T10:35:36;98002.16;;;22.29
27826;BMP280;15077;49.704;9.908;2022-10-23T10:43:45;97989.31;;;22.84
27826;BMP280;15077;49.704;9.908;2022-10-23T10:46:43;97996.50;;;23.09
27826;BMP280;15077;49.704;9.908;2022-10-23T10:49:21;97990.31;;;23.29
27826;BMP280;15077;49.704;9.908;2022-10-23T10:57:30;97982.50;;;23.74
27826;BMP280;15077;49.704;9.908;2022-10-23T10:59:59;97971.28;;;23.83
27826;BMP280;15077;49.704;9.908;2022-10-23T11:02:30;97968.47;;;23.94
27826;BMP280;15077;49.704;9.908;2022-10-23T11:07:28;97950.78;;;24.07
27826;BMP280;15077;49.704;9.908;2022-10-23T11:10:02;97942.59;;;24.11
27826;BMP280;15077;49.704;9.908;2022-10-23T11:12:28;97938.59;;;24.17
27826;BMP280;15077;49.704;9.908;2022-10-23T11:14:54;97943.47;;;24.20
27826;BMP280;15077;49.704;9.908;2022-10-23T11:17:38;97931.31;;;24.20
27826;BMP280;15077;49.704;9.908;2022-10-23T11:20:25;97932.81;;;24.23
27826;BMP280;15077;49.704;9.908;2022-10-23T11:23:17;97939.59;;;24.24
27826;BMP280;15077;49.704;9.908;2022-10-23T11:28:51;97939.69;;;24.14
27826;BMP280;15077;49.704;9.908;2022-10-23T11:31:32;97932.06;;;24.13
27826;BMP280;15077;49.704;9.908;2022-10-23T11:37:01;97912.25;;;24.04
27826;BMP280;15077;49.704;9.908;2022-10-23T11:39:31;97904.78;;;24.01
27826;BMP280;15077;49.704;9.908;2022-10-23T11:41:58;97885.31;;;23.97
27826;BMP280;15077;49.704;9.908;2022-10-23T11:52:35;97888.44;;;23.83
27826;BMP280;15077;49.704;9.908;2022-10-23T11:55:15;97893.63;;;23.83
27826;BMP280;15077;49.704;9.908;2022-10-23T11:58:07;97895.53;;;23.81
27826;BMP280;15077;49.704;9.908;2022-10-23T12:00:28;97888.22;;;23.77
27826;BMP280;15077;49.704;9.908;2022-10-23T12:02:55;97906.75;;;23.72
27826;BMP280;15077;49.704;9.908;2022-10-23T12:07:58;97900.56;;;23.65
27826;BMP280;15077;49.704;9.908;2022-10-23T12:10:45;97888.59;;;23.64
27826;BMP280;15077;49.704;9.908;2022-10-23T12:13:42;97891.03;;;23.66
27826;BMP280;15077;49.704;9.908;2022-10-23T12:16:08;97885.56;;;23.69
27826;BMP280;15077;49.704;9.908;2022-10-23T12:18:51;97864.41;;;23.73
27826;BMP280;15077;49.704;9.908;2022-10-23T12:21:19;97858.94;;;23.76
27826;BMP280;15077;49.704;9.908;2022-10-23T12:23:57;97854.41;;;23.78
27826;BMP280;15077;49.704;9.908;2022-10-23T12:29:35;97851.53;;;23.81
27826;BMP280;15077;49.704;9.908;2022-10-23T12:38:12;97832.16;;;23.85
27826;BMP280;15077;49.704;9.908;2022-10-23T12:40:38;97828.63;;;23.86
27826;BMP280;15077;49.704;9.908;2022-10-23T12:43:20;97828.47;;;23.88
27826;BMP280;15077;49.704;9.908;2022-10-23T12:45:48;97830.91;;;23.89
27826;BMP280;15077;49.704;9.908;2022-10-23T12:48:18;97817.97;;;23.89
27826;BMP280;15077;49.704;9.908;2022-10-23T12:50:48;97811.16;;;23.88
27826;BMP280;15077;49.704;9.908;2022-10-23T12:53:17;97819.22;;;23.85
27826;BMP280;15077;49.704;9.908;2022-10-23T12:55:57;97814.03;;;23.85
27826;BMP280;15077;49.704;9.908;2022-10-23T12:58:24;97805.63;;;23.83
27826;BMP280;15077;49.704;9.908;2022-10-23T13:01:20;97813.53;;;23.82
27826;BMP280;15077;49.704;9.908;2022-10-23T13:03:37;97811.91;;;23.81
27826;BMP280;15077;49.704;9.908;2022-10-23T13:06:03;97800.75;;;23.80
27826;BMP280;15077;49.704;9.908;2022-10-23T13:08:38;97792.31;;;23.78
27826;BMP280;15077;49.704;9.908;2022-10-23T13:11:05;97794.09;;;23.78
27826;BMP280;15077;49.704;9.908;2022-10-23T13:13:31;97798.47;;;23.77
27826;BMP280;15077;49.704;9.908;2022-10-23T13:15:56;97793.28;;;23.77
27826;BMP280;15077;49.704;9.908;2022-10-23T13:18:22;97793.28;;;23.77
27826;BMP280;15077;49.704;9.908;2022-10-23T13:26:00;97783.09;;;23.76
27826;BMP280;15077;49.704;9.908;2022-10-23T13:28:28;97783.09;;;23.76
27826;BMP280;15077;49.704;9.908;2022-10-23T13:33:47;97793.94;;;23.79
27826;BMP280;15077;49.704;9.908;2022-10-23T13:41:23;97777.84;;;23.93
27826;BMP280;15077;49.704;9.908;2022-10-23T13:43:49;97780.66;;;23.99
27826;BMP280;15077;49.704;9.908;2022-10-23T13:46:15;97777.63;;;24.04
27826;BMP280;15077;49.704;9.908;2022-10-23T13:48:42;97769.41;;;24.08
27826;BMP280;15077;49.704;9.908;2022-10-23T13:51:14;97758.75;;;24.11
27826;BMP280;15077;49.704;9.908;2022-10-23T13:53:40;97764.41;;;24.15
27826;BMP280;15077;49.704;9.908;2022-10-23T13:56:07;97765.75;;;24.19
27826;BMP280;15077;49.704;9.908;2022-10-23T13:58:33;97751.69;;;24.21
27826;BMP280;15077;49.704;9.908;2022-10-23T14:00:59;97753.81;;;24.26
27826;BMP280;15077;49.704;9.908;2022-10-23T14:03:25;97748.31;;;24.29
27826;BMP280;15077;49.704;9.908;2022-10-23T14:05:50;97748.00;;;24.32
27826;BMP280;15077;49.704;9.908;2022-10-23T14:08:16;97754.53;;;24.36
27826;BMP280;15077;49.704;9.908;2022-10-23T14:10:42;97759.38;;;24.39
27826;BMP280;15077;49.704;9.908;2022-10-23T14:13:08;97755.53;;;24.42
27826;BMP280;15077;49.704;9.908;2022-10-23T14:15:34;97751.03;;;24.44
27826;BMP280;15077;49.704;9.908;2022-10-23T14:18:00;97754.91;;;24.48
27826;BMP280;15077;49.704;9.908;2022-10-23T14:20:26;97768.06;;;24.55
27826;BMP280;15077;49.704;9.908;2022-10-23T14:22:52;97766.63;;;24.60
27826;BMP280;15077;49.704;9.908;2022-10-23T14:25:17;97759.53;;;24.62
27826;BMP280;15077;49.704;9.908;2022-10-23T14:27:43;97760.00;;;24.66
27826;BMP280;15077;49.704;9.908;2022-10-23T14:30:09;97757.25;;;24.67
27826;BMP280;15077;49.704;9.908;2022-10-23T14:32:35;97749.97;;;24.71
27826;BMP280;15077;49.704;9.908;2022-10-23T14:35:01;97749.03;;;24.72
27826;BMP280;15077;49.704;9.908;2022-10-23T14:37:29;97746.28;;;24.73
27826;BMP280;15077;49.704;9.908;2022-10-23T14:39:55;97747.06;;;24.74
27826;BMP280;15077;49.704;9.908;2022-10-23T14:42:21;97749.50;;;24.75
27826;BMP280;15077;49.704;9.908;2022-10-23T14:44:48;97743.38;;;24.76
27826;BMP280;15077;49.704;9.908;2022-10-23T14:47:15;97740.63;;;24.78
27826;BMP280;15077;49.704;9.908;2022-10-23T14:49:42;97743.06;;;24.79
27826;BMP280;15077;49.704;9.908;2022-10-23T14:52:08;97740.16;;;24.82
27826;BMP280;15077;49.704;9.908;2022-10-23T14:54:34;97737.56;;;24.82
27826;BMP280;15077;49.704;9.908;2022-10-23T14:57:01;97739.19;;;24.83
27826;BMP280;15077;49.704;9.908;2022-10-23T14:59:27;97737.56;;;24.82
27826;BMP280;15077;49.704;9.908;2022-10-23T15:01:53;97724.59;;;24.82
27826;BMP280;15077;49.704;9.908;2022-10-23T15:04:19;97713.44;;;24.82
27826;BMP280;15077;49.704;9.908;2022-10-23T15:06:45;97707.56;;;24.80
27826;BMP280;15077;49.704;9.908;2022-10-23T15:09:12;97700.94;;;24.77
27826;BMP280;15077;49.704;9.908;2022-10-23T15:11:38;97699.47;;;24.75
27826;BMP280;15077;49.704;9.908;2022-10-23T15:14:04;97694.44;;;24.73
27826;BMP280;15077;49.704;9.908;2022-10-23T15:16:30;97699.13;;;24.70
27826;BMP280;15077;49.704;9.908;2022-10-23T15:18:55;97691.53;;;24.68
27826;BMP280;15077;49.704;9.908;2022-10-23T15:21:21;97690.19;;;24.64
27826;BMP280;15077;49.704;9.908;2022-10-23T15:23:47;97695.53;;;24.63
27826;BMP280;15077;49.704;9.908;2022-10-23T15:26:16;97710.44;;;24.61
27826;BMP280;15077;49.704;9.908;2022-10-23T15:28:46;97707.19;;;24.59
27826;BMP280;15077;49.704;9.908;2022-10-23T15:33:53;97702.63;;;24.53
27826;BMP280;15077;49.704;9.908;2022-10-23T15:36:19;97702.28;;;24.48
27826;BMP280;15077;49.704;9.908;2022-10-23T15:38:44;97698.06;;;24.47
27826;BMP280;15077;49.704;9.908;2022-10-23T15:41:16;97695.00;;;24.43
27826;BMP280;15077;49.704;9.908;2022-10-23T15:43:42;97697.06;;;24.40
27826;BMP280;15077;49.704;9.908;2022-10-23T15:46:08;97696.59;;;24.37
27826;BMP280;15077;49.704;9.908;2022-10-23T15:48:33;97684.06;;;24.32
27826;BMP280;15077;49.704;9.908;2022-10-23T15:50:59;97686.16;;;24.29
27826;BMP280;15077;49.704;9.908;2022-10-23T15:53:25;97683.88;;;24.26
27826;BMP280;15077;49.704;9.908;2022-10-23T15:55:50;97679.19;;;24.21
27826;BMP280;15077;49.704;9.908;2022-10-23T15:58:16;97677.06;;;24.17
27826;BMP280;15077;49.704;9.908;2022-10-23T16:00:42;97677.38;;;24.14
27826;BMP280;15077;49.704;9.908;2022-10-23T16:03:07;97669.06;;;24.10
27826;BMP280;15077;49.704;9.908;2022-10-23T16:05:35;97668.59;;;24.07
27826;BMP280;15077;49.704;9.908;2022-10-23T16:08:01;97667.94;;;24.05
27826;BMP280;15077;49.704;9.908;2022-10-23T16:10:26;97657.88;;;24.02